Observations for STANSTED AIRPORT, United Kingdom (EGSS)

EGSS 240920Z AUTO 16006KT 9999 NCD 24/19 Q1015  
EGSS 240850Z AUTO 16007KT 9999 NCD 23/19 Q1015  
EGSS 240820Z AUTO 17009KT 9999 NCD 24/19 Q1015  
EGSS 240750Z AUTO 15007KT 130V250 9999 NCD 23/19 Q1015  
EGSS 240720Z AUTO 15006KT 120V290 9999 NCD 22/19 Q1015  
EGSS 240650Z AUTO VRB05KT 9999 NCD 21/18 Q1014  
EGSS 240620Z AUTO 13007KT 080V190 9999 NCD 20/18 Q1014  
EGSS 240550Z AUTO 10008KT 040V120 6000 NCD 19/17 Q1014  
EGSS 240520Z AUTO 11007KT 350V140 5000 HZ NCD 18/16 Q1014   
EGSS 240450Z AUTO 12006KT 5000 HZ NCD 18/16 Q1014   
EGSS 240420Z AUTO 11008KT 5000 HZ NCD 17/16 Q1014   
EGSS 240350Z AUTO 10008KT 5000 HZ NCD 17/16 Q1014   
EGSS 240320Z AUTO 11006KT 7000 NCD 17/16 Q1014  
EGSS 240250Z AUTO 10006KT 7000 NCD 17/16 Q1014  
EGSS 240220Z AUTO 10007KT 8000 NCD 18/16 Q1014  
EGSS 240150Z AUTO 10007KT 9999 NCD 18/16 Q1014  
EGSS 240120Z AUTO 10006KT 9999 NCD 18/16 Q1015  
EGSS 240050Z AUTO 09007KT 9999 NCD 17/15 Q1015  
EGSS 240020Z AUTO 08008KT 9999 NCD 17/15 Q1015  
EGSS 232350Z AUTO 08006KT 9999 NCD 17/15 Q1015  
EGSS 232320Z AUTO 08008KT 9999 NCD 17/15 Q1015  
EGSS 232250Z AUTO 08008KT 9999 NCD 17/15 Q1015  
EGSS 232220Z AUTO 08008KT 9999 NCD 17/15 Q1016  
EGSS 232150Z AUTO 07009KT 9999 NCD 17/15 Q1016  
EGSS 232120Z AUTO 07008KT 030V100 9999 NCD 17/15 Q1016  
EGSS 232050Z AUTO 07009KT 9999 NCD 17/14 Q1015  
EGSS 232020Z AUTO 06008G18KT 010V080 9999 NCD 18/14 Q1016   
EGSS 231950Z AUTO 06008KT 9999 NCD 18/14 Q1016  
EGSS 231920Z AUTO 05007KT 9999 NCD 18/14 Q1016  
EGSS 231850Z AUTO 06008KT 9999 NCD 19/14 Q1016  
EGSS 231820Z AUTO 06009KT 9999 NCD 19/14 Q1016  
EGSS 231750Z AUTO 08007KT 9999 NCD 20/14 Q1016  
EGSS 231720Z AUTO 08010KT 9999 NCD 21/14 Q1016  
EGSS 231650Z AUTO 08010KT 030V110 9999 NCD 22/15 Q1016  
EGSS 231620Z AUTO 08013KT 9999 NCD 22/14 Q1016  
EGSS 231550Z AUTO 09011KT 040V110 9999 NCD 22/14 Q1017  
EGSS 231520Z AUTO 09007KT 9999 NCD 23/15 Q1017  
EGSS 231450Z AUTO 08011KT 040V100 9999 NCD 22/15 Q1016  
EGSS 231420Z AUTO 07010KT 030V110 9999 NCD 23/15 Q1017  
EGSS 231350Z AUTO 08010KT 020V110 9999 NCD 23/15 Q1017  
EGSS 231320Z AUTO 07011KT 9999 NCD 23/15 Q1017  
EGSS 231250Z AUTO 08011KT 9999 NCD 23/15 Q1017  
EGSS 231220Z AUTO 07010KT 9999 NCD 23/16 Q1017  
EGSS 231150Z AUTO 09008KT 9999 NCD 22/15 Q1018  
EGSS 231120Z AUTO 09009KT 050V110 9999 NCD 22/15 Q1018  
EGSS 231050Z AUTO 09008KT 9999 NCD 22/15 Q1018  
EGSS 231020Z AUTO 07006KT 040V100 9999 NCD 21/16 Q1018  
EGSS 230950Z AUTO 08008KT 050V120 9999 NCD 20/15 Q1019  
EGSS 230920Z AUTO 06007KT 020V090 9999 NCD 19/15 Q1019  
EGSS 230850Z AUTO 07006KT 9999 NCD 19/15 Q1019